Nearby METAR (Airport) Reports

 

KPRN - Greenville, Alabama, USA
Distance from station: WNW 17mi, 28km
Updated: Mon, 28-Nov-2022 12:58am CST
Clear
Clear
 Wind from W
Wind: W 3 mph , 6 km/h
Temperature: 50°F , 10°C
Dew Point: 48°F , 9°C
Humidity: 94%
Barometer: 29.93 inHg , 1013.5 hPa
Clouds: Clear
Visibility: 10 miles , 16 km
2022/11/28 06:58 KPRN 280658Z AUTO 26003KT 10SM CLR 10/09 A2993 RMK AO2 SLP085 T01000089
KTOI - Troy, Alabama, USA
Distance from station: ENE 21mi, 34km
Updated: Mon, 28-Nov-2022 12:53am CST
Clear
Clear
 Wind from calm
Wind: Calm
Temperature: 52°F , 11°C
Dew Point: 46°F , 8°C
Humidity: 82%
Barometer: 29.94 inHg , 1013.9 hPa
Clouds: Clear
Visibility: 10 miles , 16 km
2022/11/28 06:53 KTOI 280653Z AUTO 00000KT 10SM CLR 11/08 A2994 RMK AO2 SLP137 T01110083 $
K79J - Andalusia/Opp Ar, Alabama, USA
Distance from station: S 29mi, 47km
Updated: Mon, 28-Nov-2022 12:56am CST
Clear
Clear
 Wind from WSW
Wind: WSW 3 mph , 6 km/h
Temperature: 57°F , 14°C
Dew Point: 48°F , 9°C
Humidity: 72%
Barometer: 29.94 inHg , 1013.9 hPa
Clouds: Clear
Visibility: 10 miles , 16 km
2022/11/28 06:56 K79J 280656Z AUTO 25003KT 10SM CLR 14/09 A2994 RMK AO2 SLP135 T01390094
 
KMGM - Montgomery, Alabama, USA
Distance from station: N 39mi, 63km
Updated: Mon, 28-Nov-2022 12:53am CST
Clear
Clear
 Wind from W
Wind: W 6 mph , 9 km/h
Temperature: 54°F , 12°C
Dew Point: 48°F , 9°C
Humidity: 82%
Barometer: 29.94 inHg , 1013.9 hPa
Clouds: Clear
Visibility: 10 miles , 16 km
2022/11/28 06:53 KMGM 280653Z AUTO 26005KT 10SM CLR 12/09 A2994 RMK AO2 SLP138 T01170089
KMXF - Maxwell Afb/Mgm, Alabama, USA
Distance from station: N 44mi, 70km
Updated: Mon, 28-Nov-2022 12:55am CST
Clear
Clear
 Wind from calm
Wind: Calm
Temperature: 50°F , 10°C
Dew Point: 46°F , 8°C
Humidity: 88%
Barometer: 29.92 inHg , 1013.2 hPa
Clouds: Clear
Visibility: 10 miles , 16 km
2022/11/28 06:55 KMXF 280655Z AUTO 00000KT 10SM CLR 10/08 A2992 RMK AO2 SLP134 T00970078
KLOR - Lowe Ahp/Ft. Ruc, Alabama, USA
Distance from station: SE 44mi, 71km
Updated: Mon, 28-Nov-2022 12:55am CST
Clear
Clear
 Wind from calm
Wind: Calm
Temperature: 46°F , 8°C
Dew Point: 46°F , 8°C
Humidity: 100%
Barometer: 29.94 inHg , 1013.9 hPa
Clouds: Clear
Visibility: 10 miles , 16 km
2022/11/28 06:55 KLOR 280655Z AUTO 00000KT 10SM CLR 08/08 A2994 RMK AO2 SLP122 T00820079
 
KGZH - Evergreen, Alabama, USA
Distance from station: WSW 46mi, 75km
Updated: Mon, 28-Nov-2022 12:53am CST
Clear
Clear
 Wind from WSW
Wind: WSW 5 mph , 7 km/h
Temperature: 55°F , 13°C
Dew Point: 52°F , 11°C
Humidity: 88%
Barometer: 29.95 inHg , 1014.2 hPa
Clouds: Clear
Visibility: 10 miles , 16 km
2022/11/28 06:53 KGZH 280653Z AUTO 24004KT 10SM CLR 13/11 A2995 RMK AO2 SLP139 T01280106
K0J4 - Florala Muni, Alabama, USA
Distance from station: S 47mi, 76km
Updated: Mon, 28-Nov-2022 12:58am CST
Thunderstorm, Clear
Thunderstorm, Clear
 Wind from SW
Wind: SW 5 mph , 7 km/h
Temperature: 55°F , 13°C
Dew Point: 48°F , 9°C
Humidity: 77%
Barometer: 29.97 inHg , 1014.9 hPa
Summary: Thunderstorm
Clouds: Clear
Visibility: 10 miles , 16 km
2022/11/28 06:58 K0J4 280658Z AUTO 22004KT 10SM TS CLR 13/09 A2997 RMK AO2 TSB01B32 SLP146 T01280094 $
KOZR - Ozark/Cairns Aaf, Alabama, USA
Distance from station: SE 49mi, 78km
Updated: Mon, 28-Nov-2022 12:55am CST
Clear
Clear
 Wind from S
Wind: S 3 mph , 6 km/h
Temperature: 50°F , 10°C
Dew Point: 46°F , 8°C
Humidity: 88%
Barometer: 29.94 inHg , 1013.9 hPa
Clouds: Clear
Visibility: 10 miles , 16 km
2022/11/28 06:55 KOZR 280655Z AUTO 19003KT 10SM CLR 10/08 A2994 RMK AO2 SLP140 T00990080
 
KHEY - Ft Rucker/Hanche, Alabama, USA
Distance from station: ESE 49mi, 79km
Updated: Mon, 28-Nov-2022 12:55am CST
Clear
Clear
 Wind from calm
Wind: Calm
Temperature: 48°F , 9°C
Dew Point: 48°F , 9°C
Humidity: 100%
Barometer: 29.92 inHg , 1013.2 hPa
Clouds: Clear
Visibility: 10 miles , 16 km
2022/11/28 06:55 KHEY 280655Z AUTO 00000KT 10SM CLR 09/09 A2992 RMK AO2 SLP133 T00930091
KDHN - Dothan, Alabama, USA
Distance from station: ESE 61mi, 97km
Updated: Mon, 28-Nov-2022 12:53am CST
Clear
Clear
 Wind from SW
Wind: SW 6 mph , 9 km/h
Temperature: 54°F , 12°C
Dew Point: 48°F , 9°C
Humidity: 82%
Barometer: 29.98 inHg , 1015.2 hPa
Clouds: Clear
Visibility: 10 miles , 16 km
2022/11/28 06:53 KDHN 280653Z AUTO 23005KT 10SM CLR 12/09 A2998 RMK AO2 SLP149 T01220094
KCEW - Crestview, Florida, USA
Distance from station: S 66mi, 107km
Updated: Mon, 28-Nov-2022 12:53am CST
Clear
Clear
 Wind from calm
Wind: Calm
Temperature: 46°F , 8°C
Dew Point: 46°F , 8°C
Humidity: 100%
Barometer: 29.97 inHg , 1014.9 hPa
Clouds: Clear
Visibility: 10 miles , 16 km
2022/11/28 06:53 KCEW 280653Z AUTO 00000KT 10SM CLR 08/08 A2997 RMK AO2 SLP147 T00830078
 
KEUF - Eufaula, Alabama, USA
Distance from station: ENE 73mi, 118km
Updated: Mon, 28-Nov-2022 12:58am CST
Clear
Clear
 Wind from SW
Wind: SW 5 mph , 7 km/h
Temperature: 55°F , 13°C
Dew Point: 48°F , 9°C
Humidity: 77%
Barometer: 29.95 inHg , 1014.2 hPa
Clouds: Clear
Visibility: 10 miles , 16 km
2022/11/28 06:58 KEUF 280658Z AUTO 22004KT 10SM CLR 13/09 A2995 RMK AO2 SLP139 I1000 T01280089
KJKA - Gulf Shores, Alabama, USA
Distance from station: SSW 132mi, 212km
Updated: Mon, 28-Nov-2022 12:55am CST
Clear
Clear
 Wind from W
Wind: W 7 mph , 11 km/h
Temperature: 63°F , 17°C
Dew Point: 59°F , 15°C
Humidity: 88%
Barometer: 29.96 inHg , 1014.6 hPa
Clouds: Clear
Visibility: 10 miles , 16 km
2022/11/28 06:55 KJKA 280655Z AUTO 26006KT 10SM CLR 17/15 A2996 RMK AO2
KLSF - Ft Benning/Colum, Georgia, USA
Distance from station: SNE 89mi, 143km
Updated: Mon, 28-Nov-2022 12:55am CST
Clear
Clear
 Wind from calm
Wind: Calm
Temperature: 52°F , 11°C
Dew Point: 46°F , 8°C
Humidity: 82%
Barometer: 29.91 inHg , 1012.9 hPa
Clouds: Clear
Visibility: 10 miles , 16 km
2022/11/28 06:55 KLSF 280655Z AUTO 00000KT 10SM CLR 11/08 A2991 RMK AO2 SLP133 T01130080 CHINO RWY15 $
 
KMOB - Mobile/Bates, Alabama, USA
Distance from station: SW 125mi, 202km
Updated: Mon, 28-Nov-2022 12:56am CST
Clear
Clear
 Wind from calm
Wind: Calm
Temperature: 57°F , 14°C
Dew Point: 54°F , 12°C
Humidity: 88%
Barometer: 29.96 inHg , 1014.6 hPa
Clouds: Clear
Visibility: 10 miles , 16 km
2022/11/28 06:56 KMOB 280656Z AUTO 00000KT 10SM CLR 14/12 A2996 RMK AO2 SLP144 T01390122
KNMM - Meridian Nas, Mississippi, USA
Distance from station: WNW 151mi, 243km
Updated: Mon, 28-Nov-2022 12:56am CST
Clear
Clear
 Wind from S
Wind: S 3 mph , 6 km/h
Temperature: 45°F , 7°C
Dew Point: 43°F , 6°C
Humidity: 93%
Barometer: 29.95 inHg , 1014.2 hPa
Clouds: Clear
Visibility: 10 miles , 16 km
2022/11/28 06:56 KNMM 280656Z AUTO 17003KT 10SM CLR 07/06 A2995 RMK AO2 SLP152 T00670061 $
KQHY - Hurlbert (Ft Walton Bch), Florida, USA
Distance from station: S 94mi, 151km
Updated: Sat, 19-Nov-2022 11:55am CST
NOT Current
Overcast
Overcast
 Wind from NE
Wind: NE 6 mph , 9 km/h
Temperature: 61°F , 16°C
Dew Point: 34°F , 1°C
Humidity: 36%
Barometer: 30.30 inHg , 1026.1 hPa
Clouds: Overcast
Visibility: 10 miles , 16 km
Cloud details: Overcast 11000 ft
2022/11/19 17:55 KQHY 191755Z AUTO 05005KT 10SM OVC110 16/01 A3030 RMK AO2 RAB14E30 SLP267 P0000 60000 T01550012 10159 20084 57019
 
KTCL - Tuscaloosa, Alabama, USA
Distance from station: NNW 129mi, 207km
Updated: Mon, 28-Nov-2022 1:13am CST
Fog, Clear
Fog, Clear
 Wind from calm
Wind: Calm
Temperature: 45°F , 7°C
Dew Point: 43°F , 6°C
Humidity: 93%
Barometer: 29.94 inHg , 1013.9 hPa
Summary: Fog
Clouds: Clear
Visibility: 1/2 mile , 0.8 km
2022/11/28 07:13 KTCL 280713Z AUTO 00000KT 1/2SM FG CLR 07/06 A2994 RMK AO2 T00670061
KECP - Panama City, Florida, USA
Distance from station: SSE 122mi, 196km
Updated: Mon, 28-Nov-2022 12:53am CST
Clear
Clear
 Wind from calm
Wind: Calm
Temperature: 52°F , 11°C
Dew Point: 48°F , 9°C
Humidity: 88%
Barometer: 29.96 inHg , 1014.6 hPa
Clouds: Clear
Visibility: 10 miles , 16 km
2022/11/28 06:53 KECP 280653Z AUTO 00000KT 10SM CLR 11/09 A2996 RMK AO1 SLP156 T01060089
KCBM - Columbus Afb, Mississippi, USA
Distance from station: NW 175mi, 282km
Updated: Mon, 28-Nov-2022 1:13am CST
Partly cloudy
Partly cloudy
 Wind from calm
Wind: Calm
Temperature: 48°F , 9°C
Dew Point: 45°F , 7°C
Humidity: 87%
Barometer: 29.91 inHg , 1012.9 hPa
Clouds: Partly cloudy
Visibility: 10 miles , 16 km
Cloud details: Partly cloudy 3700 ft
2022/11/28 07:13 KCBM 280713Z AUTO 00000KT 10SM SCT037 09/07 A2991 RMK AO2 SLP130 TSNO $
 
KBHM - Birmingham, Alabama, USA
Distance from station: N 132mi, 212km
Updated: Mon, 28-Nov-2022 12:53am CST
Clear
Clear
 Wind from calm
Wind: Calm
Temperature: 46°F , 8°C
Dew Point: 45°F , 7°C
Humidity: 93%
Barometer: 29.94 inHg , 1013.9 hPa
Clouds: Clear
Visibility: 10 miles , 16 km
2022/11/28 06:53 KBHM 280653Z 00000KT 10SM CLR 08/07 A2994 RMK AO2 SLP138 T00830067
KAAF - Apalachicola, Florida, USA
Distance from station: SSE 156mi, 250km
Updated: Mon, 28-Nov-2022 12:53am CST
Clear
Clear
 Wind from calm
Wind: Calm
Temperature: 54°F , 12°C
Dew Point: 52°F , 11°C
Humidity: 94%
Barometer: 29.98 inHg , 1015.2 hPa
Clouds: Clear
Visibility: 10 miles , 16 km
2022/11/28 06:53 KAAF 280653Z AUTO 00000KT 10SM CLR 12/11 A2998 RMK AO2 SLP151 T01170106 $
KATL - Atlanta, Georgia, USA
Distance from station: NE 177mi, 287km
Updated: Mon, 28-Nov-2022 12:52am CST
Few Clouds
Few Clouds
 Wind from W
Wind: W 9 mph , 15 km/h
Temperature: 54°F , 12°C
Dew Point: 45°F , 7°C
Humidity: 72%
Barometer: 29.88 inHg , 1011.9 hPa
Clouds: Few Clouds
Visibility: 10 miles , 16 km
Cloud details: Few Clouds 5000 ft
2022/11/28 06:52 KATL 280652Z 28008KT 10SM FEW050 12/07 A2988 RMK AO2 SLP117 T01220067 $
 
KGPT - Gulfport, Mississippi, USA
Distance from station: SW 192mi, 309km
Updated: Mon, 28-Nov-2022 12:53am CST
Clear
Clear
 Wind from W
Wind: W 3 mph , 6 km/h
Temperature: 63°F , 17°C
Dew Point: 57°F , 14°C
Humidity: 83%
Barometer: 29.95 inHg , 1014.2 hPa
Clouds: Clear
Visibility: 10 miles , 16 km
2022/11/28 06:53 KGPT 280653Z AUTO 26003KT 10SM CLR 17/14 A2995 RMK AO2 SLP141 T01670144 TSNO
KNEW - New Orleans/Lake, Louisiana, USA
Distance from station: SW 255mi, 410km
Updated: Mon, 28-Nov-2022 12:53am CST
Few Clouds
Few Clouds
 Wind from SW
Wind: SW 8 mph , 13 km/h
Temperature: 63°F , 17°C
Dew Point: 59°F , 15°C
Humidity: 88%
Barometer: 29.97 inHg , 1014.9 hPa
Clouds: Few Clouds
Visibility: 10 miles , 16 km
Cloud details: Few Clouds 4200 ft
2022/11/28 06:53 KNEW 280653Z AUTO 23007KT 10SM FEW042 17/15 A2997 RMK AO2 SLP141 T01720150
KP92 - Salt Point, Louisiana, USA
Distance from station: SW 347mi, 559km
Updated: Mon, 28-Nov-2022 12:59am CST

 Wind from calm
Wind: Calm
Temperature: 63°F , 17°C
Dew Point: 63°F , 17°C
Humidity: 100%
Barometer: 29.95 inHg , 1014.2 hPa
2022/11/28 06:59 KP92 280659Z AUTO 00000KT 17/17 A2995 RMK AO1 SLP141 P0001 T01670167